createdAt,value
2022-07-26T00:02:20.771Z,20.68
2022-07-26T00:04:47.188Z,20.68
2022-07-26T00:07:13.575Z,20.78
2022-07-26T00:09:42.698Z,20.74
2022-07-26T00:12:11.398Z,20.74
2022-07-26T00:14:37.776Z,20.75
2022-07-26T00:17:05.785Z,20.83
2022-07-26T00:19:32.338Z,20.80
2022-07-26T00:22:35.925Z,20.84
2022-07-26T00:25:04.695Z,20.76
2022-07-26T00:27:32.251Z,20.77
2022-07-26T00:29:58.756Z,20.75
2022-07-26T00:32:25.250Z,20.74
2022-07-26T00:34:52.762Z,20.66
2022-07-26T00:37:20.786Z,20.59
2022-07-26T00:39:48.320Z,20.49
2022-07-26T00:42:15.150Z,20.30
2022-07-26T00:44:43.810Z,20.18
2022-07-26T00:47:12.016Z,20.40
2022-07-26T00:49:38.647Z,20.42
2022-07-26T00:52:05.949Z,20.46
2022-07-26T00:54:32.832Z,20.45
2022-07-26T00:56:59.636Z,20.47
2022-07-26T00:59:26.120Z,20.48
2022-07-26T01:01:52.858Z,20.48
2022-07-26T01:04:19.591Z,20.47
2022-07-26T01:06:48.041Z,20.45
2022-07-26T01:09:14.687Z,20.38
2022-07-26T01:11:41.142Z,20.49
2022-07-26T01:14:07.938Z,20.49
2022-07-26T01:16:35.008Z,20.54
2022-07-26T01:19:01.493Z,20.53
2022-07-26T01:21:30.146Z,20.49
2022-07-26T01:23:56.842Z,20.49
2022-07-26T01:26:23.317Z,20.59
2022-07-26T01:28:52.551Z,20.61
2022-07-26T01:31:19.112Z,20.60
2022-07-26T01:33:46.048Z,20.47
2022-07-26T01:36:12.699Z,20.39
2022-07-26T01:38:42.673Z,20.19
2022-07-26T01:41:09.543Z,20.29
2022-07-26T01:43:36.532Z,20.34
2022-07-26T01:46:05.075Z,20.35
2022-07-26T01:48:31.594Z,20.29
2022-07-26T01:50:58.348Z,20.31
2022-07-26T01:53:24.785Z,20.12
2022-07-26T01:55:51.464Z,20.15
2022-07-26T01:58:18.101Z,20.14
2022-07-26T02:00:44.530Z,20.22
2022-07-26T02:03:11.183Z,20.27
2022-07-26T02:05:37.683Z,20.12
2022-07-26T02:08:04.537Z,20.08
2022-07-26T02:10:49.646Z,20.13
2022-07-26T02:13:16.532Z,20.09
2022-07-26T02:15:43.006Z,20.04
2022-07-26T02:18:09.514Z,19.95
2022-07-26T02:20:35.891Z,19.96
2022-07-26T02:23:04.016Z,19.99
2022-07-26T02:25:30.766Z,19.96
2022-07-26T02:27:58.075Z,19.83
2022-07-26T02:30:24.747Z,19.81
2022-07-26T02:32:51.151Z,19.94
2022-07-26T02:35:17.666Z,19.91
2022-07-26T02:37:44.213Z,19.96
2022-07-26T02:40:14.306Z,19.87
2022-07-26T02:42:45.032Z,19.68
2022-07-26T02:45:11.523Z,19.67
2022-07-26T02:47:46.402Z,19.55
2022-07-26T02:50:13.078Z,19.44
2022-07-26T02:52:39.531Z,19.52
2022-07-26T02:55:06.603Z,19.58
2022-07-26T02:57:45.492Z,19.68
2022-07-26T03:00:17.940Z,19.82
2022-07-26T03:02:44.560Z,19.88
2022-07-26T03:05:11.162Z,19.77
2022-07-26T03:07:37.578Z,19.66
2022-07-26T03:10:04.734Z,19.68
2022-07-26T03:12:31.431Z,19.64
2022-07-26T03:14:57.813Z,19.65
2022-07-26T03:17:24.360Z,19.73
2022-07-26T03:19:50.845Z,19.56
2022-07-26T03:22:17.479Z,19.52
2022-07-26T03:24:43.869Z,19.57
2022-07-26T03:27:10.309Z,19.56
2022-07-26T03:29:37.414Z,19.56
2022-07-26T03:32:04.098Z,19.59
2022-07-26T03:34:30.515Z,19.61
2022-07-26T03:36:56.963Z,19.68
2022-07-26T03:39:23.433Z,19.73
2022-07-26T03:41:49.824Z,19.79
2022-07-26T03:44:16.224Z,19.84
2022-07-26T03:46:42.702Z,19.71
2022-07-26T03:49:12.068Z,19.75
2022-07-26T03:51:42.611Z,19.84
2022-07-26T03:54:09.532Z,19.87
2022-07-26T03:56:36.357Z,19.91
2022-07-26T03:59:05.546Z,19.93
2022-07-26T04:01:32.963Z,19.94
2022-07-26T04:03:59.551Z,19.89
2022-07-26T04:06:25.930Z,19.88
2022-07-26T04:08:53.211Z,19.84
2022-07-26T04:11:19.756Z,19.83
2022-07-26T04:13:46.166Z,19.81
2022-07-26T04:16:13.126Z,19.84
2022-07-26T04:18:39.670Z,19.83
2022-07-26T04:21:06.357Z,19.88
2022-07-26T04:23:32.778Z,19.92
2022-07-26T04:25:59.269Z,19.97
2022-07-26T04:28:28.814Z,19.93
2022-07-26T04:30:59.698Z,19.98
2022-07-26T04:33:26.449Z,20.00
2022-07-26T04:35:53.613Z,19.96
2022-07-26T04:38:20.200Z,19.93
2022-07-26T04:40:46.584Z,19.89
2022-07-26T04:43:15.917Z,19.93
2022-07-26T04:45:43.623Z,19.99
2022-07-26T04:48:10.079Z,19.99
2022-07-26T04:50:36.617Z,19.99
2022-07-26T04:53:04.766Z,19.99
2022-07-26T04:55:31.227Z,20.01
2022-07-26T04:57:57.805Z,19.99
2022-07-26T05:00:25.145Z,20.02
2022-07-26T05:02:57.616Z,20.05
2022-07-26T05:05:25.997Z,20.04
2022-07-26T05:07:54.664Z,20.12
2022-07-26T05:10:22.658Z,20.15
2022-07-26T05:12:49.537Z,20.26
2022-07-26T05:15:16.371Z,20.19
2022-07-26T05:17:43.577Z,20.29
2022-07-26T05:20:12.138Z,20.34
2022-07-26T05:22:38.594Z,20.35
2022-07-26T05:25:06.950Z,20.34
2022-07-26T05:27:33.486Z,20.37
2022-07-26T05:30:00.036Z,20.31
2022-07-26T05:32:28.071Z,20.33
2022-07-26T05:34:54.609Z,20.37
2022-07-26T05:37:21.078Z,20.34
2022-07-26T05:39:47.457Z,20.34
2022-07-26T05:42:13.899Z,20.43
2022-07-26T05:44:42.405Z,20.42
2022-07-26T05:47:09.614Z,20.45
2022-07-26T05:49:40.079Z,20.49
2022-07-26T05:52:08.054Z,20.48
2022-07-26T05:54:34.711Z,20.54
2022-07-26T05:57:01.173Z,20.52
2022-07-26T05:59:28.150Z,20.59
2022-07-26T06:01:57.577Z,20.64
2022-07-26T06:04:26.552Z,20.67
2022-07-26T06:06:54.529Z,20.69
2022-07-26T06:09:21.480Z,20.76
2022-07-26T06:11:47.951Z,20.74
2022-07-26T06:14:14.794Z,20.85
2022-07-26T06:16:41.569Z,20.88
2022-07-26T06:19:08.116Z,21.00
2022-07-26T06:21:34.566Z,21.07
2022-07-26T06:24:01.102Z,21.15
2022-07-26T06:26:27.482Z,21.19
2022-07-26T06:28:53.985Z,21.26
2022-07-26T06:31:20.480Z,21.31
2022-07-26T06:33:47.473Z,21.36
2022-07-26T06:36:14.003Z,21.39
2022-07-26T06:38:40.533Z,21.40
2022-07-26T06:41:07.036Z,21.38
2022-07-26T06:43:33.501Z,21.43
2022-07-26T06:46:00.042Z,21.47
2022-07-26T06:48:26.777Z,21.49
2022-07-26T06:50:53.296Z,21.56
2022-07-26T06:53:19.788Z,21.64
2022-07-26T06:55:46.216Z,21.65
2022-07-26T06:58:12.676Z,21.61
2022-07-26T07:00:39.235Z,21.69
2022-07-26T07:03:05.734Z,21.72
2022-07-26T07:05:32.899Z,21.73
2022-07-26T07:07:59.416Z,21.74
2022-07-26T07:10:26.415Z,21.79
2022-07-26T07:12:52.826Z,21.82
2022-07-26T07:15:19.230Z,21.84
2022-07-26T07:17:45.664Z,21.91
2022-07-26T07:20:12.511Z,21.94
2022-07-26T07:22:38.931Z,22.02
2022-07-26T07:25:06.065Z,22.04
2022-07-26T07:27:33.120Z,22.08
2022-07-26T07:29:59.832Z,22.14
2022-07-26T07:32:26.542Z,22.17
2022-07-26T07:34:54.944Z,22.19
2022-07-26T07:37:21.478Z,22.20
2022-07-26T07:39:50.205Z,22.29
2022-07-26T07:42:17.049Z,22.34
2022-07-26T07:44:43.593Z,22.45
2022-07-26T07:47:10.147Z,22.47
2022-07-26T07:49:36.771Z,22.55
2022-07-26T07:52:03.925Z,22.62
2022-07-26T07:54:30.412Z,22.68
2022-07-26T07:56:56.840Z,22.72
2022-07-26T07:59:23.723Z,22.73
2022-07-26T08:01:50.453Z,22.74
2022-07-26T08:04:17.040Z,22.73
2022-07-26T08:06:50.953Z,22.80
2022-07-26T08:09:18.849Z,22.90
2022-07-26T08:11:45.694Z,22.89
2022-07-26T08:14:17.693Z,22.79
2022-07-26T08:16:44.736Z,22.63
2022-07-26T08:19:11.550Z,22.57
2022-07-26T08:21:38.294Z,22.46
2022-07-26T08:24:04.902Z,22.24
2022-07-26T08:26:31.338Z,22.16
2022-07-26T08:28:59.799Z,22.11
2022-07-26T08:31:28.198Z,22.08
2022-07-26T08:33:55.100Z,22.23
2022-07-26T08:36:21.562Z,22.35
2022-07-26T08:38:48.523Z,22.29
2022-07-26T08:41:17.765Z,22.27
2022-07-26T08:43:52.760Z,22.37
2022-07-26T08:46:25.887Z,22.62
2022-07-26T08:48:54.265Z,22.75
2022-07-26T08:51:23.123Z,22.68
2022-07-26T08:53:53.934Z,22.63
2022-07-26T08:56:20.351Z,22.58
2022-07-26T08:58:46.799Z,22.53
2022-07-26T09:01:13.886Z,22.56
2022-07-26T09:03:41.908Z,22.77
2022-07-26T09:06:12.133Z,22.89
2022-07-26T09:08:38.758Z,22.88
2022-07-26T09:11:23.185Z,22.85
2022-07-26T09:13:54.986Z,22.85
2022-07-26T09:16:21.650Z,22.92
2022-07-26T09:18:48.271Z,22.96
2022-07-26T09:21:32.358Z,22.89
2022-07-26T09:23:59.709Z,22.79
2022-07-26T09:26:26.567Z,22.74
2022-07-26T09:29:08.741Z,22.72
2022-07-26T09:31:38.091Z,22.72
2022-07-26T09:34:07.117Z,22.74
2022-07-26T09:36:49.447Z,22.72
2022-07-26T09:39:15.899Z,22.71
2022-07-26T09:41:42.435Z,22.72
2022-07-26T09:44:25.824Z,22.70
2022-07-26T09:46:57.439Z,22.69
2022-07-26T09:49:29.630Z,22.72
2022-07-26T09:52:15.770Z,22.95
2022-07-26T09:54:45.868Z,23.06
2022-07-26T09:57:16.170Z,23.12
2022-07-26T09:59:43.159Z,23.12
2022-07-26T10:02:10.348Z,23.05
2022-07-26T10:04:36.875Z,22.90
2022-07-26T10:07:03.934Z,22.87
2022-07-26T10:10:01.694Z,22.89
2022-07-26T10:12:32.437Z,22.92
2022-07-26T10:14:58.999Z,23.11
2022-07-26T10:17:30.817Z,23.16
2022-07-26T10:20:04.538Z,23.20
2022-07-26T10:22:40.167Z,23.27
2022-07-26T10:25:32.755Z,23.37
2022-07-26T10:27:59.187Z,23.41
2022-07-26T10:30:34.468Z,23.41
2022-07-26T10:33:10.502Z,23.34
2022-07-26T10:35:40.114Z,23.28
2022-07-26T10:38:22.078Z,23.24
2022-07-26T10:41:07.884Z,23.25
2022-07-26T10:43:42.846Z,23.23
2022-07-26T10:46:18.641Z,23.19
2022-07-26T10:48:59.962Z,23.17
2022-07-26T10:51:29.468Z,23.15
2022-07-26T10:54:13.560Z,23.16
2022-07-26T10:56:40.584Z,23.20
2022-07-26T10:59:07.231Z,23.40
2022-07-26T11:01:33.647Z,23.49
2022-07-26T11:04:00.327Z,23.48
2022-07-26T11:06:30.151Z,23.48
2022-07-26T11:08:56.598Z,23.47
2022-07-26T11:11:31.274Z,23.38
2022-07-26T11:14:11.687Z,23.35
2022-07-26T11:16:39.706Z,23.48
2022-07-26T11:19:20.191Z,23.53
2022-07-26T11:21:53.268Z,23.46
2022-07-26T11:24:21.853Z,23.45
2022-07-26T11:26:48.598Z,23.46
2022-07-26T11:29:17.451Z,23.46
2022-07-26T11:31:51.389Z,23.36
2022-07-26T11:34:27.953Z,23.37
2022-07-26T11:36:57.733Z,23.35
2022-07-26T11:39:26.663Z,23.26
2022-07-26T11:41:58.358Z,23.24
2022-07-26T11:44:25.293Z,23.17
2022-07-26T11:46:51.795Z,23.14
2022-07-26T11:49:19.576Z,23.08
2022-07-26T11:51:57.500Z,23.07
2022-07-26T11:54:27.257Z,23.01
2022-07-26T11:56:58.801Z,22.98
2022-07-26T11:59:27.776Z,22.99
2022-07-26T12:01:55.465Z,22.99
2022-07-26T12:04:27.987Z,22.99
2022-07-26T12:06:56.400Z,22.99
2022-07-26T12:09:35.999Z,23.11
2022-07-26T12:12:08.639Z,23.14
2022-07-26T12:14:37.805Z,23.27
2022-07-26T12:17:15.614Z,23.51
2022-07-26T12:19:43.466Z,24.00
2022-07-26T12:22:15.364Z,24.10
2022-07-26T12:24:43.403Z,24.09
2022-07-26T12:27:15.713Z,24.04
2022-07-26T12:29:44.813Z,24.06
2022-07-26T12:32:20.167Z,24.20
2022-07-26T12:35:08.922Z,24.38
2022-07-26T12:37:41.035Z,24.52
2022-07-26T12:40:41.518Z,24.77
2022-07-26T12:43:08.573Z,24.99
2022-07-26T12:45:36.049Z,24.89
2022-07-26T12:48:10.013Z,24.63
2022-07-26T12:50:36.784Z,24.45
2022-07-26T12:53:07.738Z,24.20
2022-07-26T12:55:35.346Z,24.01
2022-07-26T12:58:01.876Z,23.89
2022-07-26T13:00:28.753Z,23.79
2022-07-26T13:02:57.079Z,23.73
2022-07-26T13:05:23.576Z,23.61
2022-07-26T13:07:51.523Z,23.49
2022-07-26T13:10:35.011Z,23.43
2022-07-26T13:13:02.282Z,23.39
2022-07-26T13:15:36.381Z,23.56
2022-07-26T13:18:06.239Z,24.02
2022-07-26T13:20:32.872Z,24.29
2022-07-26T13:22:59.364Z,24.26
2022-07-26T13:25:26.059Z,24.33
2022-07-26T13:27:56.472Z,24.40
2022-07-26T13:30:22.996Z,24.36
2022-07-26T13:32:49.635Z,24.28
2022-07-26T13:35:16.039Z,24.29
2022-07-26T13:37:42.419Z,24.36
2022-07-26T13:40:09.451Z,24.46
2022-07-26T13:42:37.997Z,24.63
2022-07-26T13:45:06.521Z,24.71
2022-07-26T13:47:32.953Z,24.63
2022-07-26T13:49:59.405Z,24.67
2022-07-26T13:52:25.860Z,24.79
2022-07-26T13:54:52.407Z,24.92
2022-07-26T13:57:18.784Z,24.84
2022-07-26T13:59:45.257Z,24.71
2022-07-26T14:02:11.773Z,24.59
2022-07-26T14:04:39.324Z,24.48
2022-07-26T14:07:05.744Z,24.37
2022-07-26T14:09:32.194Z,24.30
2022-07-26T14:11:58.667Z,24.24
2022-07-26T14:14:25.138Z,24.16
2022-07-26T14:16:51.946Z,24.17
2022-07-26T14:19:18.586Z,24.10
2022-07-26T14:21:58.771Z,24.13
2022-07-26T14:24:26.957Z,24.12
2022-07-26T14:26:58.624Z,24.09
2022-07-26T14:29:26.063Z,24.09
2022-07-26T14:31:53.074Z,24.03
2022-07-26T14:34:19.633Z,24.02
2022-07-26T14:36:46.022Z,24.00
2022-07-26T14:39:12.424Z,24.02
2022-07-26T14:41:38.960Z,24.02
2022-07-26T14:44:05.639Z,24.06
2022-07-26T14:46:32.170Z,24.13
2022-07-26T14:48:58.764Z,24.27
2022-07-26T14:51:25.556Z,24.38
2022-07-26T14:53:51.971Z,24.44
2022-07-26T14:56:18.477Z,24.45
2022-07-26T14:58:44.889Z,24.41
2022-07-26T15:01:11.388Z,24.42
2022-07-26T15:03:37.851Z,24.39
2022-07-26T15:06:04.484Z,24.40
2022-07-26T15:08:30.904Z,24.42
2022-07-26T15:10:57.498Z,24.41
2022-07-26T15:13:24.088Z,24.32
2022-07-26T15:15:50.494Z,24.27
2022-07-26T15:18:17.048Z,24.19
2022-07-26T15:20:43.614Z,24.14
2022-07-26T15:23:11.938Z,24.09
2022-07-26T15:25:38.598Z,24.06
2022-07-26T15:28:05.162Z,24.02
2022-07-26T15:30:32.683Z,24.06
2022-07-26T15:32:59.628Z,24.06
2022-07-26T15:35:26.184Z,24.08
2022-07-26T15:37:52.585Z,24.10
2022-07-26T15:40:20.767Z,24.06
2022-07-26T15:42:48.961Z,23.99
2022-07-26T15:45:16.571Z,24.01
2022-07-26T15:47:54.889Z,23.95
2022-07-26T15:50:25.161Z,23.91
2022-07-26T15:52:51.834Z,23.84
2022-07-26T15:55:19.286Z,23.82
2022-07-26T15:57:46.739Z,23.78
2022-07-26T16:00:14.663Z,23.71
2022-07-26T16:02:41.306Z,23.67
2022-07-26T16:05:09.140Z,23.67
2022-07-26T16:07:35.565Z,23.60
2022-07-26T16:10:01.976Z,23.61
2022-07-26T16:12:29.406Z,23.61
2022-07-26T16:14:55.958Z,23.59
2022-07-26T16:17:22.427Z,23.59
2022-07-26T16:19:48.874Z,23.56
2022-07-26T16:22:16.534Z,23.57
2022-07-26T16:24:43.090Z,23.52
2022-07-26T16:27:09.514Z,23.50
2022-07-26T16:29:35.955Z,23.50
2022-07-26T16:32:02.496Z,23.49
2022-07-26T16:34:30.033Z,23.50
2022-07-26T16:36:56.470Z,23.36
2022-07-26T16:39:22.878Z,23.32
2022-07-26T16:41:49.303Z,23.30
2022-07-26T16:44:15.730Z,23.33
2022-07-26T16:46:42.201Z,23.30
2022-07-26T16:49:11.017Z,23.27
2022-07-26T16:51:37.811Z,23.29
2022-07-26T16:54:04.557Z,23.26
2022-07-26T16:56:30.996Z,23.26
2022-07-26T16:58:57.468Z,23.18
2022-07-26T17:01:24.003Z,23.13
2022-07-26T17:03:50.461Z,23.14
2022-07-26T17:06:16.995Z,23.14
2022-07-26T17:08:43.574Z,23.09
2022-07-26T17:11:10.184Z,23.13
2022-07-26T17:13:36.679Z,23.11
2022-07-26T17:16:03.417Z,23.10
2022-07-26T17:18:30.040Z,23.10
2022-07-26T17:20:57.491Z,23.13
2022-07-26T17:23:23.945Z,23.10
2022-07-26T17:25:50.364Z,23.08
2022-07-26T17:28:17.411Z,23.07
2022-07-26T17:30:43.819Z,23.06
2022-07-26T17:33:10.584Z,23.00
2022-07-26T17:35:37.106Z,22.97
2022-07-26T17:38:04.541Z,22.96
2022-07-26T17:40:31.602Z,22.96
2022-07-26T17:42:58.872Z,22.94
2022-07-26T17:45:25.373Z,22.92
2022-07-26T17:47:51.885Z,22.97
2022-07-26T17:53:05.122Z,22.91
2022-07-26T17:55:31.586Z,22.96
2022-07-26T17:57:57.987Z,22.92
2022-07-26T18:00:28.587Z,22.91
2022-07-26T18:02:56.217Z,22.91
2022-07-26T18:05:23.223Z,22.91
2022-07-26T18:07:51.586Z,22.90
2022-07-26T18:10:19.443Z,22.90
2022-07-26T18:12:45.993Z,22.87
2022-07-26T18:15:12.533Z,22.89
2022-07-26T18:17:39.655Z,22.85
2022-07-26T18:20:06.711Z,22.84
2022-07-26T18:22:33.286Z,22.84
2022-07-26T18:24:59.706Z,22.81
2022-07-26T18:27:28.097Z,22.79
2022-07-26T18:29:55.382Z,22.78
2022-07-26T18:32:22.577Z,22.76
2022-07-26T18:34:52.204Z,22.71
2022-07-26T18:37:20.710Z,22.70
2022-07-26T18:39:47.640Z,22.70
2022-07-26T18:42:14.050Z,22.67
2022-07-26T18:44:40.545Z,22.62
2022-07-26T18:47:07.327Z,22.60
2022-07-26T18:49:34.459Z,22.57
2022-07-26T18:52:08.377Z,22.54
2022-07-26T18:54:35.722Z,22.49
2022-07-26T18:57:02.152Z,22.45
2022-07-26T18:59:29.606Z,22.44
2022-07-26T19:01:57.654Z,22.43
2022-07-26T19:04:24.816Z,22.33
2022-07-26T19:06:51.463Z,22.29
2022-07-26T19:09:18.258Z,22.30
2022-07-26T19:11:47.661Z,22.22
2022-07-26T19:14:14.166Z,22.18
2022-07-26T19:16:40.623Z,22.17
2022-07-26T19:19:07.154Z,22.12
2022-07-26T19:21:33.606Z,22.11
2022-07-26T19:24:00.131Z,22.11
2022-07-26T19:26:27.319Z,22.04
2022-07-26T19:28:53.810Z,22.03
2022-07-26T19:31:20.342Z,22.01
2022-07-26T19:33:46.810Z,22.00
2022-07-26T19:36:13.182Z,22.05
2022-07-26T19:38:48.973Z,22.04
2022-07-26T19:41:16.116Z,22.00
2022-07-26T19:43:42.719Z,21.98
2022-07-26T19:46:09.271Z,21.96
2022-07-26T19:48:35.803Z,21.98
2022-07-26T19:51:02.293Z,21.98
2022-07-26T19:53:28.829Z,21.87
2022-07-26T19:55:55.473Z,21.91
2022-07-26T19:58:21.919Z,21.81
2022-07-26T20:00:53.386Z,21.79
2022-07-26T20:03:19.851Z,21.77
2022-07-26T20:05:46.418Z,21.81
2022-07-26T20:08:13.318Z,21.78
2022-07-26T20:10:39.814Z,21.78
2022-07-26T20:13:06.246Z,21.77
2022-07-26T20:15:32.784Z,21.72
2022-07-26T20:17:59.203Z,21.67
2022-07-26T20:20:25.643Z,21.61
2022-07-26T20:22:52.093Z,21.48
2022-07-26T20:25:21.724Z,21.42
2022-07-26T20:27:51.189Z,21.34
2022-07-26T20:30:18.244Z,21.34
2022-07-26T20:32:44.721Z,21.30
2022-07-26T20:35:11.140Z,21.28
2022-07-26T20:37:37.865Z,21.31
2022-07-26T20:40:04.909Z,21.32
2022-07-26T20:42:33.572Z,21.26
2022-07-26T20:45:00.949Z,21.23
2022-07-26T20:47:27.447Z,21.28
2022-07-26T20:49:53.960Z,21.24
2022-07-26T20:52:25.697Z,21.27
2022-07-26T20:54:52.185Z,21.23
2022-07-26T20:57:18.723Z,21.18
2022-07-26T20:59:45.254Z,21.24
2022-07-26T21:02:11.699Z,21.22
2022-07-26T21:04:38.182Z,21.14
2022-07-26T21:07:04.687Z,21.13
2022-07-26T21:09:31.379Z,21.10
2022-07-26T21:11:57.869Z,20.99
2022-07-26T21:14:24.382Z,21.03
2022-07-26T21:16:50.855Z,20.93
2022-07-26T21:19:17.351Z,21.00
2022-07-26T21:21:43.807Z,20.92
2022-07-26T21:24:11.474Z,20.93
2022-07-26T21:26:38.350Z,20.95
2022-07-26T21:29:05.074Z,20.89
2022-07-26T21:31:31.551Z,20.91
2022-07-26T21:33:57.981Z,20.94
2022-07-26T21:36:24.429Z,20.86
2022-07-26T21:38:50.814Z,20.86
2022-07-26T21:41:17.255Z,20.87
2022-07-26T21:43:43.691Z,20.81
2022-07-26T21:46:12.717Z,20.75
2022-07-26T21:48:40.307Z,20.85
2022-07-26T21:51:06.873Z,20.77
2022-07-26T21:53:33.308Z,20.88
2022-07-26T21:55:59.729Z,20.82
2022-07-26T21:58:28.003Z,20.69
2022-07-26T22:01:03.303Z,20.71
2022-07-26T22:03:35.594Z,20.71
2022-07-26T22:06:02.241Z,20.68
2022-07-26T22:08:28.930Z,20.59
2022-07-26T22:10:55.377Z,20.55
2022-07-26T22:13:21.797Z,20.48
2022-07-26T22:15:48.390Z,20.46
2022-07-26T22:18:14.902Z,20.52
2022-07-26T22:20:42.854Z,20.52
2022-07-26T22:23:11.053Z,20.54
2022-07-26T22:25:38.646Z,20.52
2022-07-26T22:28:07.367Z,20.46
2022-07-26T22:30:34.113Z,20.49
2022-07-26T22:33:02.339Z,20.55
2022-07-26T22:35:33.505Z,20.49
2022-07-26T22:38:05.453Z,20.58
2022-07-26T22:40:32.911Z,20.50
2022-07-26T22:42:59.603Z,20.52
2022-07-26T22:45:26.960Z,20.48
2022-07-26T22:47:55.990Z,20.43
2022-07-26T22:50:23.187Z,20.44
2022-07-26T22:52:51.494Z,20.36
2022-07-26T22:55:17.957Z,20.39
2022-07-26T22:57:44.777Z,20.31
2022-07-26T23:00:13.639Z,20.29
2022-07-26T23:02:40.282Z,20.30
2022-07-26T23:05:07.327Z,20.14
2022-07-26T23:07:35.869Z,20.10
2022-07-26T23:10:03.691Z,20.09
2022-07-26T23:12:40.598Z,19.73
2022-07-26T23:15:10.015Z,20.05
2022-07-26T23:17:36.806Z,19.94
2022-07-26T23:20:08.209Z,19.96
2022-07-26T23:22:35.011Z,20.05
2022-07-26T23:25:01.594Z,19.94
2022-07-26T23:27:27.999Z,19.95
2022-07-26T23:29:57.481Z,19.98
2022-07-26T23:32:23.925Z,19.96
2022-07-26T23:34:50.484Z,20.00
2022-07-26T23:37:16.907Z,19.95
2022-07-26T23:39:43.398Z,19.96
2022-07-26T23:42:09.798Z,19.95
2022-07-26T23:44:36.254Z,19.94
2022-07-26T23:47:02.878Z,20.00
2022-07-26T23:49:29.588Z,19.97
2022-07-26T23:51:56.131Z,19.88
2022-07-26T23:54:22.600Z,19.91
2022-07-26T23:56:49.093Z,19.90
2022-07-26T23:59:15.889Z,19.88
